Terminal Aerodrome Forecast
Issued by NWS Cleveland, OH

Home | Current Version | Previous Version | Text Only | Print | Product List | Glossary Off
Versions: 1 2 3 4 5 6 7 8 9 10 11 12 13 14 15 16 17 18 19 20 21 22 23 24 25 26 27 28 29

000
FTUS41 KCLE 250336 AAB
TAFCLE
TAF AMD
KCLE 250336Z 2504/2606 19008KT P6SM -SHRA VCTS SCT045CB BKN150
      TEMPO 2504/2505 25020G45KT 2SM +TSRA BKN030CB
     FM250700 22013KT P6SM VCSH OVC025
     FM251200 25015G25KT P6SM OVC025
     FM251800 25018G28KT 6SM -SHSN OVC020
     FM260000 26015G23KT P6SM BKN020=

USA.gov is the U.S. government's official web portal to all federal, state and local government web resources and services.